Time;durP1;ratioP1;P1;durP2;ratioP2;P2;SDS_P1;SDS_P2;PMS_P1;PMS_P2;Temp;Humidity;BMP_temperature;BMP_pressure;BME280_temperature;BME280_humidity;BME280_pressure;Samples;Min_cycle;Max_cycle;Signal;HPM_P1;HPM_P2
2023/07/16 00:00:53;;;;;;;8.45;2.85;;;;;;;-146.25;100.00;51976.88;2080217;28;36179;-80
2023/07/16 00:01:56;;;;;;;5.00;2.25;;;;;;;-146.25;100.00;52033.66;2080489;28;20190;-82
2023/07/16 00:02:58;;;;;;;8.15;2.00;;;;;;;-146.25;100.00;52035.69;2080043;28;34975;-81
2023/07/16 00:04:00;;;;;;;5.78;2.00;;;;;;;-146.25;100.00;52039.75;2080011;28;37595;-81
2023/07/16 00:05:03;;;;;;;10.82;2.58;;;;;;;-146.25;100.00;52060.00;2080667;28;34132;-81
2023/07/16 00:06:05;;;;;;;4.85;2.20;;;;;;;-146.25;100.00;52035.69;2079966;28;34282;-81
2023/07/16 00:07:06;;;;;;;9.60;2.40;;;;;;;-146.25;100.00;52013.38;2080312;28;37645;-82
2023/07/16 00:08:08;;;;;;;5.00;2.33;;;;;;;-146.25;100.00;52055.97;2080224;28;20113;-80
2023/07/16 00:09:12;;;;;;;4.43;1.95;;;;;;;-146.25;100.00;52015.41;2079632;28;36133;-82
2023/07/16 00:10:14;;;;;;;9.68;2.40;;;;;;;-146.25;100.00;52005.28;2071143;28;32421;-82
2023/07/16 00:11:16;;;;;;;5.28;2.47;;;;;;;-146.25;100.00;52045.81;2080453;28;20116;-81
2023/07/16 00:12:18;;;;;;;5.32;2.00;;;;;;;-146.25;100.00;52017.44;2079421;28;35072;-81
2023/07/16 00:13:19;;;;;;;6.10;2.17;;;;;;;-146.25;100.00;52027.56;2080784;28;20914;-82
2023/07/16 00:14:21;;;;;;;6.97;2.33;;;;;;;-146.25;100.00;52058.00;2080098;28;35582;-82
2023/07/16 00:15:24;;;;;;;7.80;2.05;;;;;;;-146.25;100.00;51989.06;2079726;28;31255;-82
2023/07/16 00:16:26;;;;;;;5.53;2.08;;;;;;;-146.25;100.00;52076.22;2079289;28;33914;-82
2023/07/16 00:17:28;;;;;;;7.18;2.17;;;;;;;-146.25;100.00;52015.41;2080169;28;37314;-83
2023/07/16 00:18:30;;;;;;;4.75;1.85;;;;;;;-146.25;100.00;52019.47;2080597;28;20030;-83
2023/07/16 00:19:32;;;;;;;7.72;1.77;;;;;;;-146.25;100.00;51999.19;2079479;28;35412;-83
2023/07/16 00:20:33;;;;;;;10.10;2.17;;;;;;;-146.25;100.00;52047.84;2079498;28;31904;-83
2023/07/16 00:21:35;;;;;;;5.65;1.70;;;;;;;-146.25;100.00;52031.63;2087826;28;33249;-82
2023/07/16 00:22:38;;;;;;;5.25;1.50;;;;;;;-146.25;100.00;52029.59;2087186;28;37662;-84
2023/07/16 00:23:40;;;;;;;6.03;1.88;;;;;;;-146.25;100.00;52017.44;2080945;28;20772;-82
2023/07/16 00:24:42;;;;;;;8.82;1.85;;;;;;;-146.25;100.00;52043.78;2079207;28;34768;-81
2023/07/16 00:25:44;;;;;;;7.13;2.00;;;;;;;-146.25;100.00;52041.75;2079598;28;34517;-82
2023/07/16 00:26:48;;;;;;;5.88;2.10;;;;;;;-146.25;100.00;51995.13;2081054;28;20127;-83
2023/07/16 00:27:52;;;;;;;6.13;2.42;;;;;;;-146.25;100.00;52035.69;2087770;28;35822;-82
2023/07/16 00:28:54;;;;;;;6.60;2.10;;;;;;;-146.25;100.00;52039.75;2087362;28;29784;-82
2023/07/16 00:29:56;;;;;;;6.35;2.08;;;;;;;-146.25;100.00;52015.41;2079648;28;23742;-83
2023/07/16 00:30:57;;;;;;;5.97;2.25;;;;;;;-146.25;100.00;51987.03;2079217;28;32068;-81
2023/07/16 00:32:00;;;;;;;5.07;2.05;;;;;;;-146.25;100.00;52031.63;2071890;28;20815;-83
2023/07/16 00:33:02;;;;;;;4.50;2.45;;;;;;;-146.25;100.00;52043.78;2071679;28;30845;-81
2023/07/16 00:34:04;;;;;;;4.07;1.58;;;;;;;-146.25;100.00;52053.94;2080178;28;21081;-82
2023/07/16 00:35:07;;;;;;;7.05;2.30;;;;;;;-146.25;100.00;52007.31;2079521;28;25275;-83
2023/07/16 00:36:09;;;;;;;6.85;2.03;;;;;;;-146.25;100.00;52025.53;2087898;28;30207;-81
2023/07/16 00:37:10;;;;;;;7.50;2.22;;;;;;;-146.25;100.00;52015.41;2080193;28;26734;-82
2023/07/16 00:38:14;;;;;;;5.65;2.10;;;;;;;-146.25;100.00;52007.31;2088314;28;20942;-82
2023/07/16 00:39:18;;;;;;;5.43;2.30;;;;;;;-146.25;100.00;51991.09;2079760;28;20038;-82
2023/07/16 00:40:20;;;;;;;6.05;2.13;;;;;;;-146.25;100.00;52047.84;2079831;28;29375;-82
2023/07/16 00:41:24;;;;;;;4.85;1.98;;;;;;;-146.25;100.00;52009.31;2080108;28;23919;-82
2023/07/16 00:42:26;;;;;;;5.07;1.90;;;;;;;-146.25;100.00;52013.38;2080333;28;25028;-81
2023/07/16 00:43:27;;;;;;;5.28;2.13;;;;;;;-146.25;100.00;52031.63;2087050;28;35148;-80
2023/07/16 00:44:32;;;;;;;6.13;2.30;;;;;;;-146.25;100.00;52060.00;2087479;28;24412;-82
2023/07/16 00:45:33;;;;;;;6.90;2.30;;;;;;;-146.25;100.00;51980.94;2079926;28;25762;-83
2023/07/16 00:46:36;;;;;;;5.13;1.88;;;;;;;-146.25;100.00;52011.34;2078681;28;31578;-82
2023/07/16 00:47:38;;;;;;;5.72;2.05;;;;;;;-146.25;100.00;52060.00;2062770;28;35871;-80
2023/07/16 00:48:41;;;;;;;4.90;2.42;;;;;;;-146.25;100.00;52015.41;2064327;28;20064;-83
2023/07/16 00:49:43;;;;;;;4.55;2.00;;;;;;;-146.25;100.00;52017.44;2080730;28;20104;-82
2023/07/16 00:50:46;;;;;;;5.05;1.70;;;;;;;-146.25;100.00;52037.72;2087919;28;20810;-82
2023/07/16 00:51:52;;;;;;;3.70;2.25;;;;;;;-146.25;100.00;52031.63;2080181;28;24716;-82
2023/07/16 00:52:54;;;;;;;6.20;2.20;;;;;;;-146.25;100.00;52015.41;2080414;28;20504;-82
2023/07/16 00:53:58;;;;;;;5.13;2.13;;;;;;;-146.25;100.00;52041.75;2071521;28;20046;-81
2023/07/16 00:55:00;;;;;;;8.38;2.05;;;;;;;-146.25;100.00;52037.72;2063983;28;34901;-81
2023/07/16 00:56:02;;;;;;;6.60;2.22;;;;;;;-146.25;100.00;52015.41;2079247;28;29180;-82
2023/07/16 00:57:07;;;;;;;5.55;2.22;;;;;;;-146.25;100.00;52019.47;2070198;28;28567;-82
2023/07/16 00:58:09;;;;;;;4.85;1.95;;;;;;;-146.25;100.00;52033.66;2064237;28;30706;-82
2023/07/16 00:59:11;;;;;;;6.78;2.10;;;;;;;-146.25;100.00;52051.91;2080108;28;20072;-82
2023/07/16 01:00:13;;;;;;;9.02;2.30;;;;;;;-146.25;100.00;52001.22;2080059;28;21010;-81
2023/07/16 01:01:15;;;;;;;7.10;2.50;;;;;;;-146.25;100.00;52025.53;2079662;28;27094;-82
2023/07/16 01:02:17;;;;;;;6.40;2.03;;;;;;;-146.25;100.00;52031.63;2079861;28;25940;-83
2023/07/16 01:03:18;;;;;;;4.93;2.10;;;;;;;-146.25;100.00;52023.53;2079450;28;31964;-83
2023/07/16 01:04:20;;;;;;;9.63;2.40;;;;;;;-146.25;100.00;52013.38;2080490;28;21273;-82
2023/07/16 01:05:36;;;;;;;6.07;2.47;;;;;;;-146.25;100.00;52043.78;2087651;28;20908;-83
2023/07/16 01:06:47;;;;;;;6.38;2.17;;;;;;;-146.25;100.00;52053.94;2079384;28;27881;-82
2023/07/16 01:08:00;;;;;;;7.30;2.28;;;;;;;-146.25;100.00;52033.66;2079524;28;29023;-82
2023/07/16 01:09:17;;;;;;;5.95;2.17;;;;;;;-146.25;100.00;52055.97;2071182;28;26906;-82
2023/07/16 01:10:22;;;;;;;5.30;2.53;;;;;;;-146.25;100.00;52072.19;2068517;28;20096;-82
2023/07/16 01:11:24;;;;;;;6.32;2.20;;;;;;;-146.25;100.00;52055.97;2074320;28;20142;-83
2023/07/16 01:12:28;;;;;;;6.55;2.53;;;;;;;-146.25;100.00;52043.78;2072448;28;20058;-82
2023/07/16 01:13:30;;;;;;;8.63;2.53;;;;;;;-146.25;100.00;52041.75;2063192;28;25994;-83
2023/07/16 01:14:32;;;;;;;5.75;2.15;;;;;;;-146.25;100.00;52088.41;2062936;28;26297;-82
2023/07/16 01:15:37;;;;;;;6.63;2.63;;;;;;;-146.25;100.00;52080.28;2072366;28;20031;-82
2023/07/16 01:16:41;;;;;;;6.38;2.40;;;;;;;-146.25;100.00;52013.38;2079624;28;20042;-83
2023/07/16 01:17:43;;;;;;;7.97;2.58;;;;;;;-146.25;100.00;52060.00;2079191;28;31872;-82
2023/07/16 01:18:45;;;;;;;9.30;2.75;;;;;;;-146.25;100.00;52055.97;2079125;28;27312;-82
2023/07/16 01:19:47;;;;;;;6.88;2.60;;;;;;;-146.25;100.00;52055.97;2079622;28;20116;-82
2023/07/16 01:20:49;;;;;;;7.65;2.92;;;;;;;-146.25;100.00;52027.56;2079495;28;20057;-82
2023/07/16 01:22:10;;;;;;;8.45;2.63;;;;;;;-146.25;100.00;52051.91;2080293;28;20092;-83
2023/07/16 01:23:31;;;;;;;6.57;2.58;;;;;;;-146.25;100.00;52037.72;2079998;28;20034;-84
2023/07/16 01:25:32;;;;;;;8.35;2.53;;;;;;;-146.25;100.00;52066.09;2079677;28;32416;-82
2023/07/16 01:27:44;;;;;;;6.45;2.72;;;;;;;-146.25;100.00;52027.56;2074391;28;26679;-81
2023/07/16 01:29:23;;;;;;;6.88;2.58;;;;;;;-146.25;100.00;52031.63;2078569;28;34326;-81
2023/07/16 01:30:27;;;;;;;5.80;2.63;;;;;;;-146.25;100.00;52102.59;2070871;28;31441;-81
2023/07/16 01:31:32;;;;;;;5.82;2.08;;;;;;;-146.25;100.00;52023.53;2070912;28;28475;-83
2023/07/16 01:32:35;;;;;;;7.05;2.45;;;;;;;-146.25;100.00;52068.13;2078561;28;33473;-83
2023/07/16 01:33:40;;;;;;;8.63;3.00;;;;;;;-146.25;100.00;52055.97;2080000;28;20050;-83
2023/07/16 01:34:45;;;;;;;6.90;2.50;;;;;;;-146.25;100.00;52021.50;2071152;28;20035;-83
2023/07/16 01:35:49;;;;;;;7.20;2.70;;;;;;;-146.25;100.00;52045.81;2072971;28;20117;-82
2023/07/16 01:36:51;;;;;;;5.82;2.45;;;;;;;-146.25;100.00;52043.78;2079590;28;20176;-83
2023/07/16 01:37:52;;;;;;;8.73;2.40;;;;;;;-146.25;100.00;52060.00;2079488;28;31553;-82
2023/07/16 01:38:55;;;;;;;6.60;2.42;;;;;;;-146.25;100.00;52041.75;2070593;28;20176;-82
2023/07/16 01:39:57;;;;;;;5.57;2.40;;;;;;;-146.25;100.00;52027.56;2071605;28;20050;-83
2023/07/16 01:40:59;;;;;;;4.72;2.65;;;;;;;-146.25;100.00;52035.69;2079188;28;31334;-83
2023/07/16 01:42:02;;;;;;;7.30;2.38;;;;;;;-146.25;100.00;52062.03;2071154;28;28412;-83
2023/07/16 01:43:03;;;;;;;8.32;2.75;;;;;;;-146.25;100.00;52045.81;2071287;28;23966;-83
2023/07/16 01:44:05;;;;;;;8.05;2.50;;;;;;;-146.25;100.00;52055.97;2078802;28;33078;-82
2023/07/16 01:45:07;;;;;;;8.48;2.65;;;;;;;-146.25;100.00;52013.38;2079825;28;21816;-82
2023/07/16 01:46:09;;;;;;;5.30;2.28;;;;;;;-146.25;100.00;52043.78;2079355;28;20918;-83
2023/07/16 01:47:23;;;;;;;3.67;2.08;;;;;;;-146.25;100.00;52058.00;2070996;28;28360;-83
2023/07/16 01:48:36;;;;;;;6.82;2.70;;;;;;;-146.25;100.00;52068.13;2072513;28;25278;-82
2023/07/16 01:49:41;;;;;;;4.05;2.20;;;;;;;-146.25;100.00;52064.06;2074290;28;25338;-82
2023/07/16 01:50:43;;;;;;;5.07;2.67;;;;;;;-146.25;100.00;52066.09;2078941;28;33302;-82
2023/07/16 01:51:45;;;;;;;8.07;2.30;;;;;;;-146.25;100.00;52051.91;2080170;28;20965;-81
2023/07/16 01:52:50;;;;;;;7.78;2.45;;;;;;;-146.25;100.00;52041.75;2087504;28;20038;-83
2023/07/16 01:53:52;;;;;;;5.10;2.55;;;;;;;-146.25;100.00;52058.00;2087059;28;20130;-82
2023/07/16 01:54:54;;;;;;;5.95;2.17;;;;;;;-146.25;100.00;52055.97;2079763;28;27851;-83
2023/07/16 01:55:55;;;;;;;7.35;2.58;;;;;;;-146.25;100.00;52043.78;2079266;28;29937;-81
2023/07/16 01:56:58;;;;;;;5.15;2.58;;;;;;;-146.25;100.00;52049.88;2087364;28;22658;-82
2023/07/16 01:57:59;;;;;;;13.57;2.90;;;;;;;-146.25;100.00;52037.72;2079853;28;20152;-81
2023/07/16 01:59:02;;;;;;;5.93;2.60;;;;;;;-146.25;100.00;52086.38;2081020;28;20038;-82
2023/07/16 02:00:08;;;;;;;7.45;2.92;;;;;;;-146.25;100.00;52078.25;2080463;28;20041;-82
2023/07/16 02:01:19;;;;;;;7.13;2.40;;;;;;;-146.25;100.00;52070.16;2081264;28;20152;-82
2023/07/16 02:02:21;;;;;;;8.27;2.60;;;;;;;-146.25;100.00;52076.22;2081296;28;20149;-82
2023/07/16 02:03:25;;;;;;;6.53;2.70;;;;;;;-146.25;100.00;52064.06;2080049;28;36420;-82
2023/07/16 02:04:27;;;;;;;4.10;2.25;;;;;;;-146.25;100.00;52023.53;2080897;28;20038;-82
2023/07/16 02:05:31;;;;;;;6.32;2.40;;;;;;;-146.25;100.00;52027.56;2080318;28;34185;-82
2023/07/16 02:06:36;;;;;;;7.18;2.58;;;;;;;-146.25;100.00;52029.59;2080362;28;28143;-81
2023/07/16 02:07:40;;;;;;;6.13;2.30;;;;;;;-146.25;100.00;52045.81;2088265;28;28639;-81
2023/07/16 02:08:42;;;;;;;5.03;2.40;;;;;;;-146.25;100.00;52060.00;2080881;28;26737;-81
2023/07/16 02:09:44;;;;;;;5.55;2.80;;;;;;;-146.25;100.00;52068.13;2080812;28;20939;-81
2023/07/16 02:10:48;;;;;;;6.28;2.38;;;;;;;-146.25;100.00;52080.28;2080108;28;33392;-81
2023/07/16 02:11:49;;;;;;;5.40;2.25;;;;;;;-146.25;100.00;52094.47;2081117;28;26196;-82
2023/07/16 02:12:51;;;;;;;7.63;2.42;;;;;;;-146.25;100.00;52064.06;2080261;28;25004;-81
2023/07/16 02:13:55;;;;;;;5.07;2.42;;;;;;;-146.25;100.00;52076.22;2080661;28;22015;-82
2023/07/16 02:14:57;;;;;;;7.82;1.88;;;;;;;-146.25;100.00;52055.97;2088427;28;20412;-81
2023/07/16 02:15:59;;;;;;;4.35;2.10;;;;;;;-146.25;100.00;52068.13;2088633;28;26947;-81
2023/07/16 02:17:01;;;;;;;6.35;2.10;;;;;;;-146.25;100.00;52047.84;2080118;28;34164;-81
2023/07/16 02:18:04;;;;;;;4.85;2.35;;;;;;;-146.25;100.00;52051.91;2080302;28;33256;-81
2023/07/16 02:19:09;;;;;;;7.38;2.45;;;;;;;-146.25;100.00;52066.09;2080636;28;20784;-82
2023/07/16 02:20:13;;;;;;;4.45;1.85;;;;;;;-146.25;100.00;52043.78;2080607;28;20934;-82
2023/07/16 02:21:15;;;;;;;6.82;2.35;;;;;;;-146.25;100.00;52045.81;2079805;28;23971;-82
2023/07/16 02:22:16;;;;;;;4.57;2.13;;;;;;;-146.25;100.00;52058.00;2080380;28;31964;-82
2023/07/16 02:23:23;;;;;;;10.35;2.65;;;;;;;-146.25;100.00;52023.53;2088374;28;29340;-81
2023/07/16 02:24:27;;;;;;;5.47;2.53;;;;;;;-146.25;100.00;52041.75;2080337;28;20050;-82
2023/07/16 02:25:29;;;;;;;6.10;2.42;;;;;;;-146.25;100.00;52029.59;2080050;28;29274;-82
2023/07/16 02:26:31;;;;;;;8.10;2.60;;;;;;;-146.25;100.00;52041.75;2088506;28;32415;-82
2023/07/16 02:27:33;;;;;;;7.75;2.28;;;;;;;-146.25;100.00;52072.19;2080865;28;27000;-81
2023/07/16 02:28:37;;;;;;;6.55;2.42;;;;;;;-146.25;100.00;52045.81;2080475;28;20061;-81
2023/07/16 02:29:39;;;;;;;4.70;1.92;;;;;;;-146.25;100.00;52074.22;2079766;28;20235;-79
2023/07/16 02:30:43;;;;;;;6.22;2.45;;;;;;;-146.25;100.00;52043.78;2079932;28;27586;-83
2023/07/16 02:31:48;;;;;;;4.53;2.40;;;;;;;-146.25;100.00;52055.97;2080564;28;20911;-81
2023/07/16 02:32:51;;;;;;;7.07;2.15;;;;;;;-146.25;100.00;52027.56;2081469;28;20038;-82
2023/07/16 02:33:54;;;;;;;5.03;2.40;;;;;;;-146.25;100.00;52035.69;2080990;28;20045;-82
2023/07/16 02:34:56;;;;;;;5.40;2.45;;;;;;;-146.25;100.00;52076.22;2081041;28;28226;-82
2023/07/16 02:35:58;;;;;;;6.55;2.45;;;;;;;-146.25;100.00;52051.91;2088055;28;29243;-82
2023/07/16 02:36:59;;;;;;;6.05;2.17;;;;;;;-146.25;100.00;52060.00;2079977;28;31136;-81
2023/07/16 02:38:04;;;;;;;6.35;2.88;;;;;;;-146.25;100.00;52043.78;2080531;28;20046;-80
2023/07/16 02:39:06;;;;;;;6.53;2.53;;;;;;;-146.25;100.00;52058.00;2080246;28;26769;-80
2023/07/16 02:40:08;;;;;;;7.97;2.45;;;;;;;-146.25;100.00;52064.06;2080325;28;20165;-81
2023/07/16 02:41:10;;;;;;;10.25;2.45;;;;;;;-146.25;100.00;52029.59;2080156;28;36234;-81
2023/07/16 02:42:12;;;;;;;9.05;2.90;;;;;;;-146.25;100.00;52060.00;2080549;28;28372;-81
2023/07/16 02:43:16;;;;;;;6.53;2.50;;;;;;;-146.25;100.00;52031.63;2080310;28;32308;-82
2023/07/16 02:44:19;;;;;;;8.80;2.75;;;;;;;-146.25;100.00;52070.16;2080976;28;20030;-81
2023/07/16 02:45:21;;;;;;;5.75;2.70;;;;;;;-146.25;100.00;52076.22;2081020;28;28186;-82
2023/07/16 02:46:23;;;;;;;8.88;2.90;;;;;;;-146.25;100.00;52072.19;2080575;28;26292;-81
2023/07/16 02:47:25;;;;;;;8.00;3.17;;;;;;;-146.25;100.00;52094.47;2080643;28;27031;-82
2023/07/16 02:48:28;;;;;;;9.95;3.05;;;;;;;-146.25;100.00;52078.25;2080322;28;30461;-82
2023/07/16 02:49:30;;;;;;;10.23;3.30;;;;;;;-146.25;100.00;52062.03;2080492;28;28827;-83
2023/07/16 02:50:38;;;;;;;5.80;2.63;;;;;;;-146.25;100.00;52031.63;2080368;28;29798;-81
2023/07/16 02:51:39;;;;;;;9.38;2.60;;;;;;;-146.25;100.00;52055.97;2080971;28;20046;-81
2023/07/16 02:52:41;;;;;;;6.40;3.03;;;;;;;-146.25;100.00;52082.31;2079932;28;32090;-82
2023/07/16 02:53:45;;;;;;;5.15;2.63;;;;;;;-146.25;100.00;52106.66;2081213;28;20147;-81
2023/07/16 02:54:47;;;;;;;6.25;3.15;;;;;;;-146.25;100.00;52068.13;2079816;28;26445;-80
2023/07/16 02:55:49;;;;;;;8.35;3.08;;;;;;;-146.25;100.00;52092.44;2080253;28;20084;-81
2023/07/16 02:56:50;;;;;;;10.20;3.05;;;;;;;-146.25;100.00;52100.56;2080552;28;20034;-82
2023/07/16 02:57:52;;;;;;;6.18;3.05;;;;;;;-146.25;100.00;52064.06;2072036;28;29379;-82
2023/07/16 02:58:54;;;;;;;6.90;2.85;;;;;;;-146.25;100.00;52074.22;2080208;28;20124;-81
2023/07/16 02:59:56;;;;;;;5.95;3.00;;;;;;;-146.25;100.00;52070.16;2080271;28;20233;-82
2023/07/16 03:00:58;;;;;;;6.18;2.85;;;;;;;-146.25;100.00;52078.25;2071932;28;20039;-82
2023/07/16 03:02:00;;;;;;;4.43;2.65;;;;;;;-146.25;100.00;52090.44;2071826;28;20781;-81
2023/07/16 03:03:01;;;;;;;8.57;2.97;;;;;;;-146.25;100.00;52029.59;2079845;28;27760;-81
2023/07/16 03:04:03;;;;;;;8.90;3.15;;;;;;;-146.25;100.00;52047.84;2080369;28;34443;-82
2023/07/16 03:05:05;;;;;;;5.93;2.38;;;;;;;-146.25;100.00;52070.16;2080013;28;31889;-80
2023/07/16 03:06:08;;;;;;;11.38;3.10;;;;;;;-146.25;100.00;52098.53;2080609;28;20140;-82
2023/07/16 03:07:10;;;;;;;7.07;2.88;;;;;;;-146.25;100.00;52076.22;2080275;28;20038;-81
2023/07/16 03:08:12;;;;;;;9.15;3.15;;;;;;;-146.25;100.00;52100.56;2080465;28;30324;-81
2023/07/16 03:09:13;;;;;;;3.97;2.80;;;;;;;-146.25;100.00;52066.09;2079947;28;29231;-80
2023/07/16 03:10:15;;;;;;;6.10;2.97;;;;;;;-146.25;100.00;52074.22;2079980;28;30752;-81
2023/07/16 03:11:17;;;;;;;7.68;3.28;;;;;;;-146.25;100.00;52064.06;2079937;28;25635;-82
2023/07/16 03:12:19;;;;;;;6.88;3.35;;;;;;;-146.25;100.00;52068.13;2064275;28;20808;-81
2023/07/16 03:13:21;;;;;;;8.88;3.55;;;;;;;-146.25;100.00;52070.16;2072419;28;20049;-82
2023/07/16 03:14:22;;;;;;;10.70;3.63;;;;;;;-146.25;100.00;52070.16;2080701;28;31082;-81
2023/07/16 03:15:24;;;;;;;8.25;2.88;;;;;;;-146.25;100.00;52082.31;2087932;28;20041;-80
2023/07/16 03:16:26;;;;;;;9.75;3.58;;;;;;;-146.25;100.00;52064.06;2079905;28;28777;-80
2023/07/16 03:17:28;;;;;;;5.22;3.00;;;;;;;-146.25;100.00;52035.69;2079465;28;35430;-81
2023/07/16 03:18:30;;;;;;;6.82;3.08;;;;;;;-146.25;100.00;52072.19;2088973;28;20045;-80
2023/07/16 03:19:32;;;;;;;7.57;3.53;;;;;;;-146.25;100.00;52060.00;2071993;28;20886;-81
2023/07/16 03:20:37;;;;;;;7.95;3.47;;;;;;;-146.25;100.00;52084.34;2072456;28;20050;-81
2023/07/16 03:21:39;;;;;;;10.50;3.70;;;;;;;-146.25;100.00;52055.97;2087351;28;27870;-83
2023/07/16 03:22:41;;;;;;;8.75;3.45;;;;;;;-146.25;100.00;52068.13;2080731;28;30878;-82
2023/07/16 03:23:43;;;;;;;6.90;3.47;;;;;;;-146.25;100.00;52062.03;2088361;28;20053;-80
2023/07/16 03:24:45;;;;;;;9.00;3.70;;;;;;;-146.25;100.00;52088.41;2080249;28;20235;-82
2023/07/16 03:25:47;;;;;;;8.73;3.30;;;;;;;-146.25;100.00;52062.03;2080369;28;20926;-81
2023/07/16 03:26:51;;;;;;;9.00;3.60;;;;;;;-146.25;100.00;52108.66;2080092;28;20057;-81
2023/07/16 03:28:00;;;;;;;6.72;3.22;;;;;;;-146.25;100.00;52039.75;2072852;28;20058;-81
2023/07/16 03:29:01;;;;;;;10.30;3.80;;;;;;;-146.25;100.00;52066.09;2080550;28;20787;-80
2023/07/16 03:30:04;;;;;;;8.07;3.35;;;;;;;-146.25;100.00;52104.63;2088458;28;20970;-80
2023/07/16 03:31:06;;;;;;;7.93;3.53;;;;;;;-146.25;100.00;52045.81;2080354;28;20034;-80
2023/07/16 03:32:10;;;;;;;7.82;3.47;;;;;;;-146.25;100.00;52074.22;2079615;28;20101;-81
2023/07/16 03:33:12;;;;;;;13.27;4.53;;;;;;;-146.25;100.00;52080.28;2080300;28;20050;-81
2023/07/16 03:34:13;;;;;;;8.77;3.45;;;;;;;-146.25;100.00;52080.28;2087669;28;38318;-80
2023/07/16 03:35:16;;;;;;;8.77;3.78;;;;;;;-146.25;100.00;52098.53;2088696;28;20053;-81
2023/07/16 03:36:18;;;;;;;7.45;3.63;;;;;;;-146.25;100.00;52076.22;2071665;28;20054;-79
2023/07/16 03:37:23;;;;;;;8.00;3.33;;;;;;;-146.25;100.00;52096.50;2071823;28;32067;-81
2023/07/16 03:38:25;;;;;;;9.70;3.35;;;;;;;-146.25;100.00;52072.19;2080003;28;20120;-81
2023/07/16 03:39:27;;;;;;;9.82;4.13;;;;;;;-146.25;100.00;52098.53;2072167;28;20050;-80
2023/07/16 03:40:30;;;;;;;9.80;3.70;;;;;;;-146.25;100.00;52068.13;2071657;28;20963;-81
2023/07/16 03:41:31;;;;;;;6.97;3.53;;;;;;;-146.25;100.00;52072.19;2080294;28;20290;-81
2023/07/16 03:42:33;;;;;;;10.70;3.58;;;;;;;-146.25;100.00;52092.44;2087937;28;26355;-80
2023/07/16 03:43:35;;;;;;;6.65;3.45;;;;;;;-146.25;100.00;52080.28;2088462;28;20908;-81
2023/07/16 03:44:49;;;;;;;6.45;3.50;;;;;;;-146.25;100.00;52086.38;2087905;28;20160;-81
2023/07/16 03:45:53;;;;;;;10.18;3.63;;;;;;;-146.25;100.00;52098.53;2080376;28;20957;-82
2023/07/16 03:46:55;;;;;;;7.32;3.20;;;;;;;-146.25;100.00;52094.47;2080231;28;20184;-81
2023/07/16 03:47:57;;;;;;;5.72;3.08;;;;;;;-146.25;100.00;52053.94;2080225;28;20800;-81
2023/07/16 03:49:00;;;;;;;8.40;3.30;;;;;;;-146.25;100.00;52104.63;2080307;28;20062;-82
2023/07/16 03:50:05;;;;;;;6.53;3.00;;;;;;;-146.25;100.00;52084.34;2080158;28;20046;-80
2023/07/16 03:51:07;;;;;;;8.95;3.28;;;;;;;-146.25;100.00;52080.28;2079500;28;31472;-81
2023/07/16 03:52:09;;;;;;;9.93;3.78;;;;;;;-146.25;100.00;52078.25;2080439;28;20046;-81
2023/07/16 03:53:11;;;;;;;6.85;3.55;;;;;;;-146.25;100.00;52043.78;2080585;28;20903;-82
2023/07/16 03:54:12;;;;;;;8.40;3.17;;;;;;;-146.25;100.00;52068.13;2080595;28;28556;-80
2023/07/16 03:55:15;;;;;;;10.00;3.38;;;;;;;-146.25;100.00;52086.38;2080241;28;20042;-81
2023/07/16 03:56:17;;;;;;;8.90;3.65;;;;;;;-146.25;100.00;52104.63;2071738;28;20176;-81
2023/07/16 03:57:19;;;;;;;8.30;3.28;;;;;;;-146.25;100.00;52084.34;2071247;28;34071;-81
2023/07/16 03:58:22;;;;;;;6.50;3.38;;;;;;;-146.25;100.00;52096.50;2079187;28;32998;-81
2023/07/16 03:59:24;;;;;;;9.65;3.55;;;;;;;-146.25;100.00;52084.34;2079333;28;21496;-81
2023/07/16 04:00:26;;;;;;;8.65;3.47;;;;;;;-146.25;100.00;52084.34;2071312;28;20050;-81
2023/07/16 04:01:28;;;;;;;12.18;4.10;;;;;;;-146.25;100.00;52112.72;2071517;28;20161;-81
2023/07/16 04:02:30;;;;;;;9.25;3.58;;;;;;;-146.25;100.00;52092.44;2079840;28;20053;-82
2023/07/16 04:03:33;;;;;;;8.35;4.03;;;;;;;-146.25;100.00;52104.63;2087536;28;20041;-79
2023/07/16 04:04:35;;;;;;;5.25;3.30;;;;;;;-146.25;100.00;52110.69;2080108;28;28536;-81
2023/07/16 04:05:37;;;;;;;6.25;3.15;;;;;;;-146.25;100.00;52082.31;2087697;28;20045;-81
2023/07/16 04:06:40;;;;;;;10.50;3.22;;;;;;;-146.25;100.00;52104.63;2079701;28;20185;-82
2023/07/16 04:07:42;;;;;;;10.65;3.67;;;;;;;-146.25;100.00;52096.50;2079467;28;34634;-81
2023/07/16 04:08:44;;;;;;;13.13;3.67;;;;;;;-146.25;100.00;52064.06;2079706;28;33774;-81
2023/07/16 04:09:50;;;;;;;9.18;3.50;;;;;;;-146.25;100.00;52070.16;2079486;28;31704;-81
2023/07/16 04:10:51;;;;;;;10.07;3.10;;;;;;;-146.25;100.00;52104.63;2080383;28;36640;-82
2023/07/16 04:11:54;;;;;;;6.85;3.15;;;;;;;-146.25;100.00;52084.34;2079786;28;33434;-82
2023/07/16 04:12:56;;;;;;;12.70;3.15;;;;;;;-146.25;100.00;52112.72;2080701;28;33056;-82
2023/07/16 04:13:58;;;;;;;7.07;3.33;;;;;;;-146.25;100.00;52116.78;2080069;28;36034;-82
2023/07/16 04:15:07;;;;;;;9.15;2.63;;;;;;;-146.25;100.00;52092.44;2080359;28;32411;-82
2023/07/16 04:16:09;;;;;;;5.30;2.40;;;;;;;-146.25;100.00;52094.47;2071195;28;36412;-82
2023/07/16 04:17:11;;;;;;;7.72;2.72;;;;;;;-146.25;100.00;52096.50;2072447;28;34540;-83
2023/07/16 04:18:15;;;;;;;14.02;2.30;;;;;;;-146.25;100.00;52112.72;2079990;28;32915;-82
2023/07/16 04:19:17;;;;;;;9.30;2.67;;;;;;;-146.25;100.00;52147.19;2080111;28;32905;-82
2023/07/16 04:20:18;;;;;;;6.85;2.10;;;;;;;-146.25;100.00;52104.63;2080149;28;33009;-82
2023/07/16 04:21:20;;;;;;;6.68;2.28;;;;;;;-146.25;100.00;52108.66;2079027;28;34066;-82
2023/07/16 04:22:22;;;;;;;6.05;2.15;;;;;;;-146.25;100.00;52124.91;2080262;28;20038;-81
2023/07/16 04:23:25;;;;;;;6.47;1.77;;;;;;;-146.25;100.00;52137.06;2080078;28;32038;-83
2023/07/16 04:24:26;;;;;;;4.55;1.63;;;;;;;-146.25;98.94;52096.50;2079879;28;36509;-78
2023/07/16 04:25:28;;;;;;;6.93;1.77;;;;;;;-146.25;96.60;52161.38;2079766;28;34952;-82
2023/07/16 04:26:32;;;;;;;5.97;1.85;;;;;;;-146.25;96.00;52151.25;2079531;28;34311;-82
2023/07/16 04:27:35;;;;;;;7.60;1.75;;;;;;;-146.25;93.49;52114.75;2078683;28;38861;-81
2023/07/16 04:28:39;;;;;;;4.75;1.73;;;;;;;-146.25;92.79;52135.03;2079244;28;32770;-80
2023/07/16 04:29:40;;;;;;;3.00;1.48;;;;;;;-146.25;91.15;52161.38;2079611;28;38586;-82
2023/07/16 04:30:42;;;;;;;3.95;1.45;;;;;;;-146.25;89.95;52137.06;2079788;28;20042;-83
2023/07/16 04:31:44;;;;;;;7.10;1.55;;;;;;;-146.25;86.70;52165.44;2079312;28;35030;-82
2023/07/16 04:32:46;;;;;;;5.18;1.48;;;;;;;-146.25;87.93;52149.22;2079539;28;34969;-79
2023/07/16 04:33:47;;;;;;;4.05;1.85;;;;;;;-146.25;85.80;52165.44;2079043;28;38582;-79
2023/07/16 04:34:49;;;;;;;9.60;1.80;;;;;;;-146.25;83.80;52112.72;2078749;28;37509;-81
2023/07/16 04:35:51;;;;;;;7.72;1.90;;;;;;;-146.25;79.29;52137.06;2080062;28;36546;-82
2023/07/16 04:36:56;;;;;;;5.85;1.50;;;;;;;-146.25;79.23;52112.72;2080143;28;32575;-82
2023/07/16 04:37:57;;;;;;;5.95;1.70;;;;;;;-146.25;80.41;52143.13;2079712;28;36427;-81
2023/07/16 04:38:59;;;;;;;5.30;1.20;;;;;;;-146.25;79.07;52133.00;2080149;28;20049;-81
2023/07/16 04:40:01;;;;;;;5.25;1.38;;;;;;;-146.25;78.69;52133.00;2079753;28;36801;-80
2023/07/16 04:41:03;;;;;;;6.05;1.42;;;;;;;-146.25;78.35;52116.78;2079664;28;32615;-80
2023/07/16 04:42:06;;;;;;;3.67;1.30;;;;;;;-146.25;78.24;52104.63;2079673;28;34716;-81
2023/07/16 04:43:07;;;;;;;5.65;1.27;;;;;;;-146.25;76.08;52104.63;2079620;28;34776;-82
2023/07/16 04:44:09;;;;;;;4.72;1.20;;;;;;;-146.25;75.14;52120.84;2079875;28;36023;-81
2023/07/16 04:45:13;;;;;;;8.10;1.50;;;;;;;-146.25;72.88;52128.94;2079280;28;34773;-81
2023/07/16 04:46:16;;;;;;;6.70;1.25;;;;;;;-146.25;72.94;52139.09;2078857;28;40469;-81
2023/07/16 04:47:18;;;;;;;4.85;1.25;;;;;;;-146.25;75.45;52108.66;2079028;28;32325;-80
2023/07/16 04:48:20;;;;;;;7.35;1.83;;;;;;;-146.25;72.78;52090.44;2087057;28;36859;-81
2023/07/16 04:49:21;;;;;;;6.03;1.50;;;;;;;-146.25;70.67;52116.78;2079193;28;36003;-82